createdAt,value
2018-11-22T12:17:38.255Z,53.63
2018-11-22T12:20:08.155Z,46.00
2018-11-22T12:22:36.573Z,46.37
2018-11-22T12:25:05.808Z,46.87
2018-11-22T12:27:34.195Z,45.70
2018-11-22T12:30:02.588Z,46.73
2018-11-22T12:32:33.652Z,45.73
2018-11-22T12:35:07.128Z,47.37
2018-11-22T12:37:43.158Z,47.90
2018-11-22T12:40:07.979Z,48.87
2018-11-22T12:42:36.361Z,47.17
2018-11-22T12:45:05.105Z,46.57
2018-11-22T12:47:34.046Z,45.03
2018-11-22T12:50:02.746Z,47.10
2018-11-22T12:52:31.127Z,45.67
2018-11-22T12:54:59.531Z,50.37
2018-11-22T12:57:27.935Z,47.80
2018-11-22T12:59:56.575Z,46.87
2018-11-22T13:02:24.952Z,46.63
2018-11-22T13:04:53.660Z,44.50
2018-11-22T13:07:22.039Z,47.50
2018-11-22T13:09:54.802Z,44.27
2018-11-22T13:12:23.175Z,48.40
2018-11-22T13:14:51.550Z,46.80
2018-11-22T13:17:19.898Z,48.63
2018-11-22T13:19:48.286Z,48.77
2018-11-22T13:22:16.667Z,47.23
2018-11-22T13:24:45.135Z,46.70
2018-11-22T13:27:13.528Z,45.57
2018-11-22T13:29:41.904Z,45.67
2018-11-22T13:32:10.282Z,45.50
2018-11-22T13:34:38.727Z,47.00
2018-11-22T13:37:07.122Z,47.97
2018-11-22T13:39:35.479Z,45.10
2018-11-22T13:42:03.838Z,43.77
2018-11-22T13:44:32.215Z,41.33
2018-11-22T13:47:00.727Z,40.87
2018-11-22T13:49:29.103Z,43.67
2018-11-22T13:51:57.504Z,43.30
2018-11-22T13:54:25.942Z,43.23
2018-11-22T13:56:54.408Z,43.17
2018-11-22T13:59:22.902Z,38.33
2018-11-22T14:01:51.318Z,41.43
2018-11-22T14:04:19.723Z,40.73
2018-11-22T14:06:48.108Z,42.93
2018-11-22T14:09:16.517Z,40.40
2018-11-22T14:11:44.918Z,40.80
2018-11-22T14:14:13.291Z,44.80
2018-11-22T14:16:41.706Z,47.73
2018-11-22T14:19:10.114Z,41.43
2018-11-22T14:21:38.525Z,39.07
2018-11-22T14:24:06.906Z,41.03
2018-11-22T14:26:35.283Z,41.13
2018-11-22T14:29:03.676Z,37.97
2018-11-22T14:31:32.066Z,40.67
2018-11-22T14:34:00.449Z,38.27
2018-11-22T14:36:28.919Z,42.53
2018-11-22T14:38:57.295Z,39.63
2018-11-22T14:41:25.666Z,41.10
2018-11-22T14:43:54.049Z,39.87
2018-11-22T14:46:22.459Z,42.77
2018-11-22T14:48:50.848Z,41.10
2018-11-22T14:51:39.212Z,41.80
2018-11-22T14:54:07.636Z,42.47
2018-11-22T14:56:36.010Z,40.70
2018-11-22T14:59:04.428Z,44.07
2018-11-22T15:01:32.828Z,44.50
2018-11-22T15:04:01.204Z,44.13
2018-11-22T15:06:29.586Z,37.93
2018-11-22T15:08:57.978Z,39.57
2018-11-22T15:11:26.783Z,42.80
2018-11-22T15:13:55.435Z,45.63
2018-11-22T15:16:23.829Z,46.10
2018-11-22T15:18:52.231Z,45.67
2018-11-22T15:21:20.609Z,48.27
2018-11-22T15:23:48.985Z,43.13
2018-11-22T15:26:17.383Z,44.20
2018-11-22T15:28:45.763Z,45.00
2018-11-22T15:31:14.175Z,44.03
2018-11-22T15:33:42.557Z,49.07
2018-11-22T15:36:10.940Z,44.90
2018-11-22T15:38:39.334Z,43.80
2018-11-22T15:41:07.746Z,48.17
2018-11-22T15:43:36.126Z,48.33
2018-11-22T15:46:04.511Z,43.97
2018-11-22T15:48:32.886Z,45.97
2018-11-22T15:51:01.267Z,50.03
2018-11-22T15:53:29.658Z,50.33
2018-11-22T15:55:58.047Z,45.70
2018-11-22T15:58:26.621Z,48.37
2018-11-22T16:00:55.024Z,49.10
2018-11-22T16:03:23.419Z,46.97
2018-11-22T16:05:51.811Z,45.53
2018-11-22T16:08:20.207Z,51.40
2018-11-22T16:10:48.595Z,45.60
2018-11-22T16:13:16.978Z,50.77
2018-11-22T16:15:49.073Z,51.43
2018-11-22T16:18:17.603Z,55.37
2018-11-22T16:20:46.104Z,53.43
2018-11-22T16:23:14.535Z,46.97
2018-11-22T16:25:42.970Z,51.33
2018-11-22T16:28:11.434Z,48.93
2018-11-22T16:30:40.581Z,48.87
2018-11-22T16:33:08.985Z,51.47
2018-11-22T16:35:37.570Z,50.50
2018-11-22T16:38:06.200Z,47.23
2018-11-22T16:40:34.695Z,43.00
2018-11-22T16:43:04.016Z,52.37
2018-11-22T16:45:33.746Z,48.47
2018-11-22T16:48:03.746Z,49.53
2018-11-22T16:50:33.358Z,50.63
2018-11-22T16:53:01.782Z,47.33
2018-11-22T16:55:30.326Z,50.63
2018-11-22T16:58:00.077Z,49.73
2018-11-22T17:00:32.734Z,45.43
2018-11-22T17:03:03.665Z,48.60
2018-11-22T17:05:32.216Z,50.80
2018-11-22T17:08:01.651Z,48.77
2018-11-22T17:10:31.116Z,44.80
2018-11-22T17:13:00.770Z,49.50
2018-11-22T17:15:30.857Z,48.80
2018-11-22T17:17:59.922Z,49.10
2018-11-22T17:20:29.546Z,48.40
2018-11-22T17:22:58.083Z,46.60
2018-11-22T17:25:28.155Z,47.37
2018-11-22T17:27:59.132Z,45.57
2018-11-22T17:30:31.317Z,47.03
2018-11-22T17:32:59.819Z,46.83
2018-11-22T17:35:28.961Z,54.40
2018-11-22T17:37:58.911Z,49.20
2018-11-22T17:40:28.743Z,49.93
2018-11-22T17:42:57.214Z,46.80
2018-11-22T17:45:28.418Z,49.27
2018-11-22T17:47:56.939Z,53.47
2018-11-22T17:50:27.110Z,46.57
2018-11-22T17:52:55.583Z,50.47
2018-11-22T17:55:25.531Z,49.57
2018-11-22T17:57:54.023Z,50.07
2018-11-22T18:00:25.043Z,52.60
2018-11-22T18:02:54.714Z,50.10
2018-11-22T18:05:27.035Z,56.17
2018-11-22T18:07:51.770Z,49.13
2018-11-22T18:10:21.655Z,49.03
2018-11-22T18:12:50.711Z,49.27
2018-11-22T18:15:20.154Z,46.63
2018-11-22T18:17:48.732Z,54.30
2018-11-22T18:20:19.419Z,53.83
2018-11-22T18:22:48.670Z,49.87
2018-11-22T18:25:18.290Z,51.47
2018-11-22T18:27:46.771Z,49.67
2018-11-22T18:30:17.305Z,48.40
2018-11-22T18:32:49.339Z,51.50
2018-11-22T18:35:17.736Z,49.50
2018-11-22T18:37:46.242Z,48.57
2018-11-22T18:40:16.643Z,51.53
2018-11-22T18:42:45.740Z,46.83
2018-11-22T18:45:15.570Z,48.90
2018-11-22T18:47:44.963Z,57.23
2018-11-22T18:50:17.421Z,51.40
2018-11-22T18:52:46.230Z,54.17
2018-11-22T18:55:14.717Z,52.07
2018-11-22T18:57:43.602Z,48.43
2018-11-22T19:00:16.071Z,51.93
2018-11-22T19:02:44.503Z,54.93
2018-11-22T19:05:13.975Z,47.37
2018-11-22T19:07:44.599Z,48.63
2018-11-22T19:10:15.415Z,52.20
2018-11-22T19:12:44.752Z,53.57
2018-11-22T19:15:15.440Z,53.53
2018-11-22T19:17:43.910Z,54.07
2018-11-22T19:20:15.655Z,54.87
2018-11-22T19:22:45.056Z,57.30
2018-11-22T19:25:13.475Z,54.47
2018-11-22T19:27:42.359Z,50.87
2018-11-22T19:30:14.527Z,52.17
2018-11-22T19:32:43.723Z,58.93
2018-11-22T19:35:13.046Z,54.57
2018-11-22T19:37:41.854Z,55.40
2018-11-22T19:40:14.390Z,52.90
2018-11-22T19:42:43.494Z,60.07
2018-11-22T19:45:13.503Z,63.33
2018-11-22T19:47:41.923Z,57.37
2018-11-22T19:50:13.328Z,57.87
2018-11-22T19:52:42.144Z,56.10
2018-11-22T19:55:13.060Z,62.63
2018-11-22T19:57:42.123Z,55.17
2018-11-22T20:00:11.917Z,61.40
2018-11-22T20:02:41.057Z,61.47
2018-11-22T20:05:11.295Z,57.90
2018-11-22T20:07:40.118Z,58.33
2018-11-22T20:10:11.299Z,62.37
2018-11-22T20:12:39.854Z,66.00
2018-11-22T20:15:08.462Z,57.87
2018-11-22T20:17:37.127Z,59.23
2018-11-22T20:20:05.703Z,57.90
2018-11-22T20:22:34.120Z,63.20
2018-11-22T20:25:02.648Z,69.17
2018-11-22T20:27:31.227Z,70.83
2018-11-22T20:29:59.838Z,63.40
2018-11-22T20:32:28.287Z,69.73
2018-11-22T20:34:56.755Z,68.00
2018-11-22T20:37:26.216Z,65.30
2018-11-22T20:39:55.591Z,69.03
2018-11-22T20:42:24.276Z,68.03
2018-11-22T20:44:53.507Z,69.10
2018-11-22T20:47:32.518Z,67.70
2018-11-22T20:50:07.466Z,73.73
2018-11-22T20:55:35.338Z,78.97
2018-11-22T20:58:05.272Z,73.63
2018-11-22T21:00:35.716Z,79.33
2018-11-22T21:03:04.157Z,84.30
2018-11-22T21:05:32.901Z,84.03
2018-11-22T21:08:01.563Z,82.23
2018-11-22T21:10:31.245Z,85.27
2018-11-22T21:12:59.699Z,86.17
2018-11-22T21:15:29.850Z,91.03
2018-11-22T21:18:01.363Z,89.33
2018-11-22T21:20:31.707Z,92.90
2018-11-22T21:23:00.990Z,89.87
2018-11-22T21:25:32.371Z,87.93
2018-11-22T21:28:02.512Z,96.63
2018-11-22T21:30:34.231Z,90.03
2018-11-22T21:33:03.679Z,103.30
2018-11-22T21:35:33.117Z,97.80
2018-11-22T21:38:03.172Z,103.53
2018-11-22T21:40:33.040Z,101.33
2018-11-22T21:43:01.820Z,105.03
2018-11-22T21:45:32.293Z,111.43
2018-11-22T21:48:01.271Z,103.33
2018-11-22T21:50:30.226Z,107.20
2018-11-22T21:52:59.162Z,102.20
2018-11-22T21:55:29.234Z,114.77
2018-11-22T21:57:59.559Z,104.80
2018-11-22T22:00:35.252Z,104.20
2018-11-22T22:03:06.070Z,103.43
2018-11-22T22:05:34.951Z,104.83
2018-11-22T22:08:04.095Z,99.53
2018-11-22T22:10:34.168Z,98.33
2018-11-22T22:13:03.324Z,106.37
2018-11-22T22:15:33.466Z,114.67
2018-11-22T22:18:02.300Z,110.93
2018-11-22T22:20:33.359Z,110.83
2018-11-22T22:23:02.280Z,110.63
2018-11-22T22:25:31.798Z,105.63
2018-11-22T22:28:00.789Z,112.40
2018-11-22T22:30:31.665Z,112.03
2018-11-22T22:33:01.754Z,100.17
2018-11-22T22:35:30.288Z,105.87
2018-11-22T22:37:59.215Z,103.30
2018-11-22T22:40:28.805Z,99.80
2018-11-22T22:42:58.252Z,91.53
2018-11-22T22:45:28.187Z,86.20
2018-11-22T22:47:56.970Z,93.53
2018-11-22T22:50:27.592Z,100.33
2018-11-22T22:52:57.796Z,101.37
2018-11-22T22:55:26.778Z,95.27
2018-11-22T22:57:55.368Z,91.27
2018-11-22T23:00:30.483Z,86.20
2018-11-22T23:03:05.820Z,80.57
2018-11-22T23:05:34.967Z,90.17
2018-11-22T23:08:03.766Z,78.57
2018-11-22T23:10:32.359Z,81.00
2018-11-22T23:13:01.325Z,86.33
2018-11-22T23:15:30.731Z,79.90
2018-11-22T23:17:59.439Z,78.50
2018-11-22T23:20:30.472Z,74.00
2018-11-22T23:22:59.259Z,79.63
2018-11-22T23:25:28.679Z,78.00
2018-11-22T23:27:57.612Z,79.90
2018-11-22T23:30:27.785Z,82.47
2018-11-22T23:32:58.796Z,84.80
2018-11-22T23:35:27.520Z,79.73
2018-11-22T23:37:56.191Z,100.23
2018-11-22T23:40:26.976Z,82.00
2018-11-22T23:42:55.463Z,82.00
2018-11-22T23:45:25.402Z,89.70
2018-11-22T23:47:54.069Z,79.23
2018-11-22T23:50:23.959Z,76.83
2018-11-22T23:52:54.898Z,93.20
2018-11-22T23:55:23.419Z,80.87
2018-11-22T23:57:52.227Z,79.17
